sensor_id;sensor_type;location;lat;lon;timestamp;temperature;humidity
9941;DHT22;5009;50.656;7.188;2022-11-15T00:00:17;11.60;99.90
9941;DHT22;5009;50.656;7.188;2022-11-15T00:02:42;11.50;99.90
9941;DHT22;5009;50.656;7.188;2022-11-15T00:05:08;11.50;99.90
9941;DHT22;5009;50.656;7.188;2022-11-15T00:07:33;11.60;99.90
9941;DHT22;5009;50.656;7.188;2022-11-15T00:09:59;11.60;99.90
9941;DHT22;5009;50.656;7.188;2022-11-15T00:12:24;11.50;99.90
9941;DHT22;5009;50.656;7.188;2022-11-15T00:14:51;11.50;99.90
9941;DHT22;5009;50.656;7.188;2022-11-15T00:17:17;11.50;99.90
9941;DHT22;5009;50.656;7.188;2022-11-15T00:19:42;11.50;99.90
9941;DHT22;5009;50.656;7.188;2022-11-15T00:22:08;11.50;99.90
9941;DHT22;5009;50.656;7.188;2022-11-15T00:24:34;11.50;99.90
9941;DHT22;5009;50.656;7.188;2022-11-15T00:26:59;11.50;99.90
9941;DHT22;5009;50.656;7.188;2022-11-15T00:29:25;11.60;99.90
9941;DHT22;5009;50.656;7.188;2022-11-15T00:31:50;11.60;99.90
9941;DHT22;5009;50.656;7.188;2022-11-15T00:34:16;11.60;99.90
9941;DHT22;5009;50.656;7.188;2022-11-15T00:36:41;11.70;99.90
9941;DHT22;5009;50.656;7.188;2022-11-15T00:39:07;11.70;99.90
9941;DHT22;5009;50.656;7.188;2022-11-15T00:41:32;11.70;99.90
9941;DHT22;5009;50.656;7.188;2022-11-15T00:43:58;11.80;99.90
9941;DHT22;5009;50.656;7.188;2022-11-15T00:46:24;11.80;99.90
9941;DHT22;5009;50.656;7.188;2022-11-15T00:48:49;11.80;99.90
9941;DHT22;5009;50.656;7.188;2022-11-15T00:51:15;11.90;99.90
9941;DHT22;5009;50.656;7.188;2022-11-15T00:53:40;11.90;99.90
9941;DHT22;5009;50.656;7.188;2022-11-15T00:56:06;11.90;99.90
9941;DHT22;5009;50.656;7.188;2022-11-15T00:58:31;11.90;99.90
9941;DHT22;5009;50.656;7.188;2022-11-15T01:01:08;12.00;99.90
9941;DHT22;5009;50.656;7.188;2022-11-15T01:03:35;11.90;99.90
9941;DHT22;5009;50.656;7.188;2022-11-15T01:06:00;12.00;99.90
9941;DHT22;5009;50.656;7.188;2022-11-15T01:08:26;12.00;99.90
9941;DHT22;5009;50.656;7.188;2022-11-15T01:10:51;12.10;99.90
9941;DHT22;5009;50.656;7.188;2022-11-15T01:13:17;12.00;99.90
9941;DHT22;5009;50.656;7.188;2022-11-15T01:15:43;12.00;99.90
9941;DHT22;5009;50.656;7.188;2022-11-15T01:18:09;12.00;99.90
9941;DHT22;5009;50.656;7.188;2022-11-15T01:20:34;12.00;99.90
9941;DHT22;5009;50.656;7.188;2022-11-15T01:23:03;11.90;99.90
9941;DHT22;5009;50.656;7.188;2022-11-15T01:25:29;11.90;99.90
9941;DHT22;5009;50.656;7.188;2022-11-15T01:27:54;11.90;99.90
9941;DHT22;5009;50.656;7.188;2022-11-15T01:30:20;11.90;99.90
9941;DHT22;5009;50.656;7.188;2022-11-15T01:32:46;11.80;99.90
9941;DHT22;5009;50.656;7.188;2022-11-15T01:35:11;11.80;99.90
9941;DHT22;5009;50.656;7.188;2022-11-15T01:37:37;11.90;99.90
9941;DHT22;5009;50.656;7.188;2022-11-15T01:40:02;11.90;99.90
9941;DHT22;5009;50.656;7.188;2022-11-15T01:42:28;11.90;99.90
9941;DHT22;5009;50.656;7.188;2022-11-15T01:44:54;11.90;99.90
9941;DHT22;5009;50.656;7.188;2022-11-15T01:47:26;11.90;99.90
9941;DHT22;5009;50.656;7.188;2022-11-15T01:49:58;12.00;99.90
9941;DHT22;5009;50.656;7.188;2022-11-15T01:52:28;12.00;99.90
9941;DHT22;5009;50.656;7.188;2022-11-15T01:55:08;12.00;99.90
9941;DHT22;5009;50.656;7.188;2022-11-15T01:57:35;12.00;99.90
9941;DHT22;5009;50.656;7.188;2022-11-15T02:00:02;12.00;99.90
9941;DHT22;5009;50.656;7.188;2022-11-15T02:02:28;12.00;99.90
9941;DHT22;5009;50.656;7.188;2022-11-15T02:04:54;12.00;99.90
9941;DHT22;5009;50.656;7.188;2022-11-15T02:07:21;12.00;99.90
9941;DHT22;5009;50.656;7.188;2022-11-15T02:09:47;12.00;99.90
9941;DHT22;5009;50.656;7.188;2022-11-15T02:12:16;12.00;99.90
9941;DHT22;5009;50.656;7.188;2022-11-15T02:14:48;12.00;99.90
9941;DHT22;5009;50.656;7.188;2022-11-15T02:22:59;12.00;99.90
9941;DHT22;5009;50.656;7.188;2022-11-15T02:36:26;12.10;99.90
9941;DHT22;5009;50.656;7.188;2022-11-15T02:44:02;12.10;99.90
9941;DHT22;5009;50.656;7.188;2022-11-15T02:49:19;12.10;99.90
9941;DHT22;5009;50.656;7.188;2022-11-15T02:51:47;12.10;99.90
9941;DHT22;5009;50.656;7.188;2022-11-15T02:54:20;12.10;99.90
9941;DHT22;5009;50.656;7.188;2022-11-15T02:56:46;12.10;99.90
9941;DHT22;5009;50.656;7.188;2022-11-15T02:59:52;12.20;99.90
9941;DHT22;5009;50.656;7.188;2022-11-15T03:02:27;12.20;99.90
9941;DHT22;5009;50.656;7.188;2022-11-15T03:08:09;12.20;99.90
9941;DHT22;5009;50.656;7.188;2022-11-15T03:11:10;12.20;99.90
9941;DHT22;5009;50.656;7.188;2022-11-15T03:13:43;12.20;99.90
9941;DHT22;5009;50.656;7.188;2022-11-15T03:18:59;12.30;99.90
9941;DHT22;5009;50.656;7.188;2022-11-15T03:21:28;12.30;99.90
9941;DHT22;5009;50.656;7.188;2022-11-15T03:23:56;12.30;99.90
9941;DHT22;5009;50.656;7.188;2022-11-15T03:26:24;12.30;99.90
9941;DHT22;5009;50.656;7.188;2022-11-15T03:28:56;12.30;99.90
9941;DHT22;5009;50.656;7.188;2022-11-15T03:31:28;12.30;99.90
9941;DHT22;5009;50.656;7.188;2022-11-15T03:34:44;12.30;99.90
9941;DHT22;5009;50.656;7.188;2022-11-15T03:37:12;12.40;99.90
9941;DHT22;5009;50.656;7.188;2022-11-15T03:39:39;12.30;99.90
9941;DHT22;5009;50.656;7.188;2022-11-15T03:44:59;12.40;99.90
9941;DHT22;5009;50.656;7.188;2022-11-15T03:48:10;12.30;99.90
9941;DHT22;5009;50.656;7.188;2022-11-15T03:50:33;12.40;99.90
9941;DHT22;5009;50.656;7.188;2022-11-15T03:53:00;12.30;99.90
9941;DHT22;5009;50.656;7.188;2022-11-15T03:55:26;12.40;99.90
9941;DHT22;5009;50.656;7.188;2022-11-15T03:57:54;12.30;99.90
9941;DHT22;5009;50.656;7.188;2022-11-15T04:00:22;12.40;99.90
9941;DHT22;5009;50.656;7.188;2022-11-15T04:02:47;12.30;99.90
9941;DHT22;5009;50.656;7.188;2022-11-15T04:05:13;12.30;99.90
9941;DHT22;5009;50.656;7.188;2022-11-15T04:07:39;12.30;99.90
9941;DHT22;5009;50.656;7.188;2022-11-15T04:10:05;12.30;99.90
9941;DHT22;5009;50.656;7.188;2022-11-15T04:12:38;12.30;99.90
9941;DHT22;5009;50.656;7.188;2022-11-15T04:15:08;12.30;99.90
9941;DHT22;5009;50.656;7.188;2022-11-15T04:17:36;12.30;99.90
9941;DHT22;5009;50.656;7.188;2022-11-15T04:20:07;12.30;99.90
9941;DHT22;5009;50.656;7.188;2022-11-15T04:22:53;12.30;99.90
9941;DHT22;5009;50.656;7.188;2022-11-15T04:25:37;12.30;99.90
9941;DHT22;5009;50.656;7.188;2022-11-15T04:28:03;12.20;99.90
9941;DHT22;5009;50.656;7.188;2022-11-15T04:30:29;12.30;99.90
9941;DHT22;5009;50.656;7.188;2022-11-15T04:32:54;12.30;99.90
9941;DHT22;5009;50.656;7.188;2022-11-15T04:35:20;12.30;99.90
9941;DHT22;5009;50.656;7.188;2022-11-15T04:37:45;12.30;99.90
9941;DHT22;5009;50.656;7.188;2022-11-15T04:40:11;12.30;99.90
9941;DHT22;5009;50.656;7.188;2022-11-15T04:42:37;12.30;99.90
9941;DHT22;5009;50.656;7.188;2022-11-15T04:45:02;12.30;99.90
9941;DHT22;5009;50.656;7.188;2022-11-15T04:47:28;12.40;99.90
9941;DHT22;5009;50.656;7.188;2022-11-15T04:49:54;12.40;99.90
9941;DHT22;5009;50.656;7.188;2022-11-15T04:52:20;12.40;99.90
9941;DHT22;5009;50.656;7.188;2022-11-15T04:54:46;12.40;99.90
9941;DHT22;5009;50.656;7.188;2022-11-15T04:57:11;12.40;99.90
9941;DHT22;5009;50.656;7.188;2022-11-15T04:59:37;12.40;99.90
9941;DHT22;5009;50.656;7.188;2022-11-15T05:02:02;12.40;99.90
9941;DHT22;5009;50.656;7.188;2022-11-15T05:04:28;12.50;99.90
9941;DHT22;5009;50.656;7.188;2022-11-15T05:06:53;12.50;99.90
9941;DHT22;5009;50.656;7.188;2022-11-15T05:09:20;12.50;99.90
9941;DHT22;5009;50.656;7.188;2022-11-15T05:11:46;12.50;99.90
9941;DHT22;5009;50.656;7.188;2022-11-15T05:14:12;12.40;99.90
9941;DHT22;5009;50.656;7.188;2022-11-15T05:16:38;12.40;99.90
9941;DHT22;5009;50.656;7.188;2022-11-15T05:19:04;12.50;99.90
9941;DHT22;5009;50.656;7.188;2022-11-15T05:21:31;12.40;99.90
9941;DHT22;5009;50.656;7.188;2022-11-15T05:23:57;12.40;99.90
9941;DHT22;5009;50.656;7.188;2022-11-15T05:26:23;12.40;99.90
9941;DHT22;5009;50.656;7.188;2022-11-15T05:28:56;12.40;99.90
9941;DHT22;5009;50.656;7.188;2022-11-15T05:31:22;12.30;99.90
9941;DHT22;5009;50.656;7.188;2022-11-15T05:33:49;12.20;99.90
9941;DHT22;5009;50.656;7.188;2022-11-15T05:36:35;12.20;99.90
9941;DHT22;5009;50.656;7.188;2022-11-15T05:39:01;12.20;99.90
9941;DHT22;5009;50.656;7.188;2022-11-15T05:41:39;12.10;99.90
9941;DHT22;5009;50.656;7.188;2022-11-15T05:44:07;12.10;99.90
9941;DHT22;5009;50.656;7.188;2022-11-15T05:46:34;12.10;99.90
9941;DHT22;5009;50.656;7.188;2022-11-15T05:49:00;12.10;99.90
9941;DHT22;5009;50.656;7.188;2022-11-15T05:51:27;12.00;99.90
9941;DHT22;5009;50.656;7.188;2022-11-15T05:53:56;12.10;99.90
9941;DHT22;5009;50.656;7.188;2022-11-15T05:56:24;12.00;99.90
9941;DHT22;5009;50.656;7.188;2022-11-15T05:58:49;12.00;99.90
9941;DHT22;5009;50.656;7.188;2022-11-15T06:01:16;12.00;99.90
9941;DHT22;5009;50.656;7.188;2022-11-15T06:03:42;11.90;99.90
9941;DHT22;5009;50.656;7.188;2022-11-15T06:06:08;11.90;99.90
9941;DHT22;5009;50.656;7.188;2022-11-15T06:08:33;11.90;99.90
9941;DHT22;5009;50.656;7.188;2022-11-15T06:11:03;11.80;99.90
9941;DHT22;5009;50.656;7.188;2022-11-15T06:13:29;11.80;99.90
9941;DHT22;5009;50.656;7.188;2022-11-15T06:15:58;11.80;99.90
9941;DHT22;5009;50.656;7.188;2022-11-15T06:18:24;11.80;99.90
9941;DHT22;5009;50.656;7.188;2022-11-15T06:20:49;11.80;99.90
9941;DHT22;5009;50.656;7.188;2022-11-15T06:23:15;11.80;99.90
9941;DHT22;5009;50.656;7.188;2022-11-15T06:25:41;11.80;99.90
9941;DHT22;5009;50.656;7.188;2022-11-15T06:28:06;11.80;99.90
9941;DHT22;5009;50.656;7.188;2022-11-15T06:30:32;11.80;99.90
9941;DHT22;5009;50.656;7.188;2022-11-15T06:33:03;11.80;99.90
9941;DHT22;5009;50.656;7.188;2022-11-15T06:35:30;11.80;99.90
9941;DHT22;5009;50.656;7.188;2022-11-15T06:37:59;11.70;99.90
9941;DHT22;5009;50.656;7.188;2022-11-15T06:40:26;11.80;99.90
9941;DHT22;5009;50.656;7.188;2022-11-15T06:42:57;11.70;99.90
9941;DHT22;5009;50.656;7.188;2022-11-15T06:45:23;11.70;99.90
9941;DHT22;5009;50.656;7.188;2022-11-15T06:47:49;11.70;99.90
9941;DHT22;5009;50.656;7.188;2022-11-15T06:50:14;11.70;99.90
9941;DHT22;5009;50.656;7.188;2022-11-15T06:52:40;11.70;99.90
9941;DHT22;5009;50.656;7.188;2022-11-15T06:55:06;11.70;99.90
9941;DHT22;5009;50.656;7.188;2022-11-15T06:57:32;11.70;99.90
9941;DHT22;5009;50.656;7.188;2022-11-15T06:59:57;11.70;99.90
9941;DHT22;5009;50.656;7.188;2022-11-15T07:02:23;11.60;99.90
9941;DHT22;5009;50.656;7.188;2022-11-15T07:04:48;11.60;99.90
9941;DHT22;5009;50.656;7.188;2022-11-15T07:07:14;11.60;99.90
9941;DHT22;5009;50.656;7.188;2022-11-15T07:09:39;11.60;99.90
9941;DHT22;5009;50.656;7.188;2022-11-15T07:12:05;11.70;99.90
9941;DHT22;5009;50.656;7.188;2022-11-15T07:14:31;11.70;99.90
9941;DHT22;5009;50.656;7.188;2022-11-15T07:16:56;11.70;99.90
9941;DHT22;5009;50.656;7.188;2022-11-15T07:19:22;11.60;99.90
9941;DHT22;5009;50.656;7.188;2022-11-15T07:21:47;11.60;99.90
9941;DHT22;5009;50.656;7.188;2022-11-15T07:24:13;11.60;99.90
9941;DHT22;5009;50.656;7.188;2022-11-15T07:26:38;11.60;99.90
9941;DHT22;5009;50.656;7.188;2022-11-15T07:29:04;11.60;99.90
9941;DHT22;5009;50.656;7.188;2022-11-15T07:31:30;11.60;99.90
9941;DHT22;5009;50.656;7.188;2022-11-15T07:33:56;11.60;99.90
9941;DHT22;5009;50.656;7.188;2022-11-15T07:36:21;11.60;99.90
9941;DHT22;5009;50.656;7.188;2022-11-15T07:38:47;11.60;99.90
9941;DHT22;5009;50.656;7.188;2022-11-15T07:41:12;11.60;99.90
9941;DHT22;5009;50.656;7.188;2022-11-15T07:43:38;11.70;99.90
9941;DHT22;5009;50.656;7.188;2022-11-15T07:46:07;11.70;99.90
9941;DHT22;5009;50.656;7.188;2022-11-15T07:48:38;11.70;99.90
9941;DHT22;5009;50.656;7.188;2022-11-15T07:51:05;11.80;99.90
9941;DHT22;5009;50.656;7.188;2022-11-15T07:53:31;12.00;99.90
9941;DHT22;5009;50.656;7.188;2022-11-15T07:55:56;12.00;99.90
9941;DHT22;5009;50.656;7.188;2022-11-15T07:58:22;12.00;99.90
9941;DHT22;5009;50.656;7.188;2022-11-15T08:00:48;12.10;99.90
9941;DHT22;5009;50.656;7.188;2022-11-15T08:03:15;12.20;99.90
9941;DHT22;5009;50.656;7.188;2022-11-15T08:05:42;12.30;99.90
9941;DHT22;5009;50.656;7.188;2022-11-15T08:08:09;12.30;99.90
9941;DHT22;5009;50.656;7.188;2022-11-15T08:10:35;12.50;99.90
9941;DHT22;5009;50.656;7.188;2022-11-15T08:13:09;12.60;99.90
9941;DHT22;5009;50.656;7.188;2022-11-15T08:15:35;12.80;99.90
9941;DHT22;5009;50.656;7.188;2022-11-15T08:18:04;12.90;99.90
9941;DHT22;5009;50.656;7.188;2022-11-15T08:20:30;13.00;99.90
9941;DHT22;5009;50.656;7.188;2022-11-15T08:22:57;13.10;99.90
9941;DHT22;5009;50.656;7.188;2022-11-15T08:25:24;13.20;99.90
9941;DHT22;5009;50.656;7.188;2022-11-15T08:27:53;13.30;99.90
9941;DHT22;5009;50.656;7.188;2022-11-15T08:30:19;13.40;99.90
9941;DHT22;5009;50.656;7.188;2022-11-15T08:32:44;13.30;99.90
9941;DHT22;5009;50.656;7.188;2022-11-15T08:35:10;13.30;99.90
9941;DHT22;5009;50.656;7.188;2022-11-15T08:37:36;13.30;99.90
9941;DHT22;5009;50.656;7.188;2022-11-15T08:40:02;13.20;99.90
9941;DHT22;5009;50.656;7.188;2022-11-15T08:42:28;13.20;99.90
9941;DHT22;5009;50.656;7.188;2022-11-15T08:44:53;13.30;99.90
9941;DHT22;5009;50.656;7.188;2022-11-15T08:47:19;13.40;99.90
9941;DHT22;5009;50.656;7.188;2022-11-15T08:49:44;13.50;99.90
9941;DHT22;5009;50.656;7.188;2022-11-15T08:52:10;13.50;99.90
9941;DHT22;5009;50.656;7.188;2022-11-15T08:54:35;13.50;99.90
9941;DHT22;5009;50.656;7.188;2022-11-15T08:57:01;13.40;99.90
9941;DHT22;5009;50.656;7.188;2022-11-15T08:59:27;13.50;99.90
9941;DHT22;5009;50.656;7.188;2022-11-15T09:01:52;13.50;99.90
9941;DHT22;5009;50.656;7.188;2022-11-15T09:04:18;13.60;99.90
9941;DHT22;5009;50.656;7.188;2022-11-15T09:06:43;13.80;99.90
9941;DHT22;5009;50.656;7.188;2022-11-15T09:09:09;14.00;99.90
9941;DHT22;5009;50.656;7.188;2022-11-15T09:11:35;14.00;99.90
9941;DHT22;5009;50.656;7.188;2022-11-15T09:14:00;14.30;99.90
9941;DHT22;5009;50.656;7.188;2022-11-15T09:16:26;14.40;99.90
9941;DHT22;5009;50.656;7.188;2022-11-15T09:18:53;14.30;99.90
9941;DHT22;5009;50.656;7.188;2022-11-15T09:21:18;14.30;99.90
9941;DHT22;5009;50.656;7.188;2022-11-15T09:23:44;14.30;99.90
9941;DHT22;5009;50.656;7.188;2022-11-15T09:26:10;14.30;99.90
9941;DHT22;5009;50.656;7.188;2022-11-15T09:28:36;14.20;99.90
9941;DHT22;5009;50.656;7.188;2022-11-15T09:31:04;14.30;99.90
9941;DHT22;5009;50.656;7.188;2022-11-15T09:33:29;14.30;99.90
9941;DHT22;5009;50.656;7.188;2022-11-15T09:36:00;14.50;99.90
9941;DHT22;5009;50.656;7.188;2022-11-15T09:38:26;14.50;99.90
9941;DHT22;5009;50.656;7.188;2022-11-15T09:44:07;14.60;99.90
9941;DHT22;5009;50.656;7.188;2022-11-15T09:46:53;14.60;99.90
9941;DHT22;5009;50.656;7.188;2022-11-15T09:49:23;14.40;99.90
9941;DHT22;5009;50.656;7.188;2022-11-15T09:51:50;14.40;99.90
9941;DHT22;5009;50.656;7.188;2022-11-15T09:54:30;14.40;99.90
9941;DHT22;5009;50.656;7.188;2022-11-15T09:57:46;14.30;99.90
9941;DHT22;5009;50.656;7.188;2022-11-15T10:03:10;14.10;99.90
9941;DHT22;5009;50.656;7.188;2022-11-15T10:05:46;14.10;99.90
9941;DHT22;5009;50.656;7.188;2022-11-15T10:10:47;14.10;99.90
9941;DHT22;5009;50.656;7.188;2022-11-15T10:13:22;14.00;99.90
9941;DHT22;5009;50.656;7.188;2022-11-15T10:15:49;14.00;99.90
9941;DHT22;5009;50.656;7.188;2022-11-15T10:18:27;13.90;99.90
9941;DHT22;5009;50.656;7.188;2022-11-15T10:20:59;13.90;99.90
9941;DHT22;5009;50.656;7.188;2022-11-15T10:23:26;13.90;99.90
9941;DHT22;5009;50.656;7.188;2022-11-15T10:25:57;13.90;99.90
9941;DHT22;5009;50.656;7.188;2022-11-15T10:28:30;13.90;99.90
9941;DHT22;5009;50.656;7.188;2022-11-15T10:30:58;13.90;99.90
9941;DHT22;5009;50.656;7.188;2022-11-15T10:49:22;14.10;99.90
9941;DHT22;5009;50.656;7.188;2022-11-15T10:52:16;14.10;99.90
9941;DHT22;5009;50.656;7.188;2022-11-15T10:54:51;14.10;99.90
9941;DHT22;5009;50.656;7.188;2022-11-15T10:57:23;14.00;99.90
9941;DHT22;5009;50.656;7.188;2022-11-15T10:59:53;13.90;99.90
9941;DHT22;5009;50.656;7.188;2022-11-15T11:05:32;13.90;99.90
9941;DHT22;5009;50.656;7.188;2022-11-15T11:10:34;13.80;99.90
9941;DHT22;5009;50.656;7.188;2022-11-15T11:13:34;13.90;99.90
9941;DHT22;5009;50.656;7.188;2022-11-15T11:21:15;14.00;99.90
9941;DHT22;5009;50.656;7.188;2022-11-15T11:23:58;14.00;99.90
9941;DHT22;5009;50.656;7.188;2022-11-15T11:32:29;14.20;99.90
9941;DHT22;5009;50.656;7.188;2022-11-15T11:37:54;14.40;99.90
9941;DHT22;5009;50.656;7.188;2022-11-15T11:40:32;14.40;99.90
9941;DHT22;5009;50.656;7.188;2022-11-15T11:43:22;14.40;99.90
9941;DHT22;5009;50.656;7.188;2022-11-15T11:46:55;14.50;99.90
9941;DHT22;5009;50.656;7.188;2022-11-15T11:49:25;14.50;99.90
9941;DHT22;5009;50.656;7.188;2022-11-15T11:52:01;14.60;99.90
9941;DHT22;5009;50.656;7.188;2022-11-15T11:57:25;14.50;99.90
9941;DHT22;5009;50.656;7.188;2022-11-15T12:03:09;14.30;99.90
9941;DHT22;5009;50.656;7.188;2022-11-15T12:05:49;14.20;99.90
9941;DHT22;5009;50.656;7.188;2022-11-15T12:09:05;14.20;99.90
9941;DHT22;5009;50.656;7.188;2022-11-15T12:11:22;14.10;99.90
9941;DHT22;5009;50.656;7.188;2022-11-15T12:13:56;14.10;99.90
9941;DHT22;5009;50.656;7.188;2022-11-15T12:16:31;14.10;99.90
9941;DHT22;5009;50.656;7.188;2022-11-15T12:19:00;14.10;99.90
9941;DHT22;5009;50.656;7.188;2022-11-15T12:21:42;14.10;99.90
9941;DHT22;5009;50.656;7.188;2022-11-15T12:26:52;14.30;99.90
9941;DHT22;5009;50.656;7.188;2022-11-15T12:29:26;14.30;99.90
9941;DHT22;5009;50.656;7.188;2022-11-15T12:31:55;14.30;99.90
9941;DHT22;5009;50.656;7.188;2022-11-15T12:36:49;14.30;99.90
9941;DHT22;5009;50.656;7.188;2022-11-15T12:39:17;14.30;99.90
9941;DHT22;5009;50.656;7.188;2022-11-15T12:41:45;14.30;99.90
9941;DHT22;5009;50.656;7.188;2022-11-15T12:47:08;14.40;99.90
9941;DHT22;5009;50.656;7.188;2022-11-15T12:49:48;14.40;99.90
9941;DHT22;5009;50.656;7.188;2022-11-15T12:52:14;14.50;99.90
9941;DHT22;5009;50.656;7.188;2022-11-15T12:59:57;14.50;99.90
9941;DHT22;5009;50.656;7.188;2022-11-15T13:02:39;14.50;99.90
9941;DHT22;5009;50.656;7.188;2022-11-15T13:17:46;14.50;99.90
9941;DHT22;5009;50.656;7.188;2022-11-15T13:22:49;14.50;99.90
9941;DHT22;5009;50.656;7.188;2022-11-15T13:33:56;14.60;99.90
9941;DHT22;5009;50.656;7.188;2022-11-15T13:36:25;14.60;99.90
9941;DHT22;5009;50.656;7.188;2022-11-15T13:39:26;14.70;99.90
9941;DHT22;5009;50.656;7.188;2022-11-15T13:41:52;14.60;99.90
9941;DHT22;5009;50.656;7.188;2022-11-15T13:44:26;14.70;99.90
9941;DHT22;5009;50.656;7.188;2022-11-15T13:47:21;14.70;99.90
9941;DHT22;5009;50.656;7.188;2022-11-15T13:49:50;14.70;99.90
9941;DHT22;5009;50.656;7.188;2022-11-15T13:52:15;14.70;99.90
9941;DHT22;5009;50.656;7.188;2022-11-15T13:54:59;14.70;99.90
9941;DHT22;5009;50.656;7.188;2022-11-15T13:57:29;14.70;99.90
9941;DHT22;5009;50.656;7.188;2022-11-15T13:59:59;14.70;99.90
9941;DHT22;5009;50.656;7.188;2022-11-15T14:02:31;14.70;99.90
9941;DHT22;5009;50.656;7.188;2022-11-15T14:05:21;14.70;99.90
9941;DHT22;5009;50.656;7.188;2022-11-15T14:07:57;14.70;99.90
9941;DHT22;5009;50.656;7.188;2022-11-15T14:10:34;14.70;99.90
9941;DHT22;5009;50.656;7.188;2022-11-15T14:13:01;14.70;99.90
9941;DHT22;5009;50.656;7.188;2022-11-15T14:15:35;14.70;99.90
9941;DHT22;5009;50.656;7.188;2022-11-15T14:18:03;14.70;99.90
9941;DHT22;5009;50.656;7.188;2022-11-15T14:23:23;14.80;99.90
9941;DHT22;5009;50.656;7.188;2022-11-15T14:25:54;14.70;99.90
9941;DHT22;5009;50.656;7.188;2022-11-15T14:30:49;14.70;99.90
9941;DHT22;5009;50.656;7.188;2022-11-15T14:35:49;14.70;99.90
9941;DHT22;5009;50.656;7.188;2022-11-15T14:38:15;14.60;99.90
9941;DHT22;5009;50.656;7.188;2022-11-15T14:40:41;14.60;99.90
9941;DHT22;5009;50.656;7.188;2022-11-15T14:43:10;14.60;99.90
9941;DHT22;5009;50.656;7.188;2022-11-15T14:45:36;14.60;99.90
9941;DHT22;5009;50.656;7.188;2022-11-15T14:48:02;14.60;99.90
9941;DHT22;5009;50.656;7.188;2022-11-15T14:50:28;14.60;99.90
9941;DHT22;5009;50.656;7.188;2022-11-15T14:52:53;14.60;99.90
9941;DHT22;5009;50.656;7.188;2022-11-15T14:55:22;14.60;99.90
9941;DHT22;5009;50.656;7.188;2022-11-15T14:57:48;14.60;99.90
9941;DHT22;5009;50.656;7.188;2022-11-15T15:00:15;14.50;99.90
9941;DHT22;5009;50.656;7.188;2022-11-15T15:02:42;14.50;99.90
9941;DHT22;5009;50.656;7.188;2022-11-15T15:05:18;14.40;99.90
9941;DHT22;5009;50.656;7.188;2022-11-15T15:07:45;14.40;99.90
9941;DHT22;5009;50.656;7.188;2022-11-15T15:10:12;14.40;99.90
9941;DHT22;5009;50.656;7.188;2022-11-15T15:12:38;14.40;99.90
9941;DHT22;5009;50.656;7.188;2022-11-15T15:15:04;14.40;99.90
9941;DHT22;5009;50.656;7.188;2022-11-15T15:17:29;14.40;99.90
9941;DHT22;5009;50.656;7.188;2022-11-15T15:19:55;14.40;99.90
9941;DHT22;5009;50.656;7.188;2022-11-15T15:22:21;14.40;99.90
9941;DHT22;5009;50.656;7.188;2022-11-15T15:24:50;14.40;99.90
9941;DHT22;5009;50.656;7.188;2022-11-15T15:27:16;14.40;99.90
9941;DHT22;5009;50.656;7.188;2022-11-15T15:29:41;14.30;99.90
9941;DHT22;5009;50.656;7.188;2022-11-15T15:32:08;14.30;99.90
9941;DHT22;5009;50.656;7.188;2022-11-15T15:34:34;14.30;99.90
9941;DHT22;5009;50.656;7.188;2022-11-15T15:37:25;14.20;99.90
9941;DHT22;5009;50.656;7.188;2022-11-15T15:39:52;14.20;99.90
9941;DHT22;5009;50.656;7.188;2022-11-15T15:42:19;14.20;99.90
9941;DHT22;5009;50.656;7.188;2022-11-15T15:44:46;14.10;99.90
9941;DHT22;5009;50.656;7.188;2022-11-15T15:47:19;14.10;99.90
9941;DHT22;5009;50.656;7.188;2022-11-15T15:49:45;14.10;99.90
9941;DHT22;5009;50.656;7.188;2022-11-15T15:52:11;14.10;99.90
9941;DHT22;5009;50.656;7.188;2022-11-15T15:54:37;14.10;99.90
9941;DHT22;5009;50.656;7.188;2022-11-15T15:57:03;14.10;99.90
9941;DHT22;5009;50.656;7.188;2022-11-15T15:59:28;13.90;99.90
9941;DHT22;5009;50.656;7.188;2022-11-15T16:01:54;13.90;99.90
9941;DHT22;5009;50.656;7.188;2022-11-15T16:04:19;13.90;99.90
9941;DHT22;5009;50.656;7.188;2022-11-15T16:06:45;13.90;99.90
9941;DHT22;5009;50.656;7.188;2022-11-15T16:09:13;14.00;99.90
9941;DHT22;5009;50.656;7.188;2022-11-15T16:11:40;14.00;99.90
9941;DHT22;5009;50.656;7.188;2022-11-15T16:14:05;14.00;99.90
9941;DHT22;5009;50.656;7.188;2022-11-15T16:16:31;14.00;99.90
9941;DHT22;5009;50.656;7.188;2022-11-15T16:18:57;13.90;99.90
9941;DHT22;5009;50.656;7.188;2022-11-15T16:21:22;13.90;99.90
9941;DHT22;5009;50.656;7.188;2022-11-15T16:23:48;13.90;99.90
9941;DHT22;5009;50.656;7.188;2022-11-15T16:26:22;13.80;99.90
9941;DHT22;5009;50.656;7.188;2022-11-15T16:28:49;13.80;99.90
9941;DHT22;5009;50.656;7.188;2022-11-15T16:31:15;13.80;99.90
9941;DHT22;5009;50.656;7.188;2022-11-15T16:33:43;13.80;99.90
9941;DHT22;5009;50.656;7.188;2022-11-15T16:36:22;13.80;99.90
9941;DHT22;5009;50.656;7.188;2022-11-15T16:38:48;13.80;99.90
9941;DHT22;5009;50.656;7.188;2022-11-15T16:41:14;13.80;99.90
9941;DHT22;5009;50.656;7.188;2022-11-15T16:43:46;13.80;99.90
9941;DHT22;5009;50.656;7.188;2022-11-15T16:46:16;13.80;99.90
9941;DHT22;5009;50.656;7.188;2022-11-15T16:48:42;13.80;99.90
9941;DHT22;5009;50.656;7.188;2022-11-15T16:51:08;13.80;99.90
9941;DHT22;5009;50.656;7.188;2022-11-15T16:53:34;13.70;99.90
9941;DHT22;5009;50.656;7.188;2022-11-15T16:56:00;13.70;99.90
9941;DHT22;5009;50.656;7.188;2022-11-15T16:58:26;13.70;99.90
9941;DHT22;5009;50.656;7.188;2022-11-15T17:00:53;13.70;99.90
9941;DHT22;5009;50.656;7.188;2022-11-15T17:03:20;13.70;99.90
9941;DHT22;5009;50.656;7.188;2022-11-15T17:05:46;13.70;99.90
9941;DHT22;5009;50.656;7.188;2022-11-15T17:08:12;13.70;99.90
9941;DHT22;5009;50.656;7.188;2022-11-15T17:10:41;13.70;99.90
9941;DHT22;5009;50.656;7.188;2022-11-15T17:13:10;13.70;99.90
9941;DHT22;5009;50.656;7.188;2022-11-15T17:15:36;13.70;99.90
9941;DHT22;5009;50.656;7.188;2022-11-15T17:18:01;13.70;99.90
9941;DHT22;5009;50.656;7.188;2022-11-15T17:20:27;13.60;99.90
9941;DHT22;5009;50.656;7.188;2022-11-15T17:22:52;13.70;99.90
9941;DHT22;5009;50.656;7.188;2022-11-15T17:25:18;13.70;99.90
9941;DHT22;5009;50.656;7.188;2022-11-15T17:27:44;13.70;99.90
9941;DHT22;5009;50.656;7.188;2022-11-15T17:30:12;13.70;99.90
9941;DHT22;5009;50.656;7.188;2022-11-15T17:32:40;13.70;99.90
9941;DHT22;5009;50.656;7.188;2022-11-15T17:35:06;13.70;99.90
9941;DHT22;5009;50.656;7.188;2022-11-15T17:37:32;13.60;99.90
9941;DHT22;5009;50.656;7.188;2022-11-15T17:39:58;13.70;99.90
9941;DHT22;5009;50.656;7.188;2022-11-15T17:42:24;13.60;99.90
9941;DHT22;5009;50.656;7.188;2022-11-15T17:44:49;13.60;99.90
9941;DHT22;5009;50.656;7.188;2022-11-15T17:47:15;13.60;99.90
9941;DHT22;5009;50.656;7.188;2022-11-15T17:49:40;13.60;99.90
9941;DHT22;5009;50.656;7.188;2022-11-15T17:52:06;13.60;99.90
9941;DHT22;5009;50.656;7.188;2022-11-15T17:54:32;13.60;99.90
9941;DHT22;5009;50.656;7.188;2022-11-15T17:56:58;13.60;99.90
9941;DHT22;5009;50.656;7.188;2022-11-15T17:59:23;13.60;99.90
9941;DHT22;5009;50.656;7.188;2022-11-15T18:01:49;13.60;99.90
9941;DHT22;5009;50.656;7.188;2022-11-15T18:04:15;13.60;99.90
9941;DHT22;5009;50.656;7.188;2022-11-15T18:06:40;13.50;99.90
9941;DHT22;5009;50.656;7.188;2022-11-15T18:09:06;13.50;99.90
9941;DHT22;5009;50.656;7.188;2022-11-15T18:11:35;13.50;99.90
9941;DHT22;5009;50.656;7.188;2022-11-15T18:14:05;13.50;99.90
9941;DHT22;5009;50.656;7.188;2022-11-15T18:16:33;13.50;99.90
9941;DHT22;5009;50.656;7.188;2022-11-15T18:18:59;13.50;99.90
9941;DHT22;5009;50.656;7.188;2022-11-15T18:21:27;13.50;99.90